sensor_id;sensor_type;location;lat;lon;timestamp;P1;durP1;ratioP1;P2;durP2;ratioP2
26908;SDS011;14477;51.038;4.588;2023-04-08T00:01:43;5.60;;;2.72;;
26908;SDS011;14477;51.038;4.588;2023-04-08T00:04:09;4.80;;;2.60;;
26908;SDS011;14477;51.038;4.588;2023-04-08T00:06:38;6.00;;;2.70;;
26908;SDS011;14477;51.038;4.588;2023-04-08T00:09:04;6.20;;;3.25;;
26908;SDS011;14477;51.038;4.588;2023-04-08T00:11:30;5.68;;;2.72;;
26908;SDS011;14477;51.038;4.588;2023-04-08T00:13:56;7.23;;;2.87;;
26908;SDS011;14477;51.038;4.588;2023-04-08T00:16:22;5.78;;;2.80;;
26908;SDS011;14477;51.038;4.588;2023-04-08T00:18:47;6.90;;;2.73;;
26908;SDS011;14477;51.038;4.588;2023-04-08T00:21:13;5.43;;;2.58;;
26908;SDS011;14477;51.038;4.588;2023-04-08T00:23:42;4.53;;;2.50;;
26908;SDS011;14477;51.038;4.588;2023-04-08T00:26:08;5.80;;;2.58;;
26908;SDS011;14477;51.038;4.588;2023-04-08T00:28:33;6.68;;;2.72;;
26908;SDS011;14477;51.038;4.588;2023-04-08T00:30:59;5.63;;;2.50;;
26908;SDS011;14477;51.038;4.588;2023-04-08T00:33:25;6.28;;;2.80;;
26908;SDS011;14477;51.038;4.588;2023-04-08T00:35:50;7.53;;;2.93;;
26908;SDS011;14477;51.038;4.588;2023-04-08T00:38:16;6.30;;;2.65;;
26908;SDS011;14477;51.038;4.588;2023-04-08T00:40:42;5.90;;;2.50;;
26908;SDS011;14477;51.038;4.588;2023-04-08T00:43:07;5.55;;;2.75;;
26908;SDS011;14477;51.038;4.588;2023-04-08T00:45:33;5.10;;;2.37;;
26908;SDS011;14477;51.038;4.588;2023-04-08T00:48:00;4.50;;;2.70;;
26908;SDS011;14477;51.038;4.588;2023-04-08T00:50:26;6.37;;;2.70;;
26908;SDS011;14477;51.038;4.588;2023-04-08T00:52:52;4.65;;;2.78;;
26908;SDS011;14477;51.038;4.588;2023-04-08T00:55:18;5.27;;;2.67;;
26908;SDS011;14477;51.038;4.588;2023-04-08T00:57:43;5.13;;;2.80;;
26908;SDS011;14477;51.038;4.588;2023-04-08T01:00:09;6.28;;;2.90;;
26908;SDS011;14477;51.038;4.588;2023-04-08T01:08:26;6.05;;;3.03;;
26908;SDS011;14477;51.038;4.588;2023-04-08T01:10:56;6.13;;;2.70;;
26908;SDS011;14477;51.038;4.588;2023-04-08T01:13:26;6.97;;;2.88;;
26908;SDS011;14477;51.038;4.588;2023-04-08T01:15:55;5.47;;;2.83;;
26908;SDS011;14477;51.038;4.588;2023-04-08T01:18:21;5.35;;;3.15;;
26908;SDS011;14477;51.038;4.588;2023-04-08T01:20:48;7.63;;;2.88;;
26908;SDS011;14477;51.038;4.588;2023-04-08T01:26:01;5.00;;;2.80;;
26908;SDS011;14477;51.038;4.588;2023-04-08T01:28:27;6.75;;;3.40;;
26908;SDS011;14477;51.038;4.588;2023-04-08T01:30:55;6.85;;;2.90;;
26908;SDS011;14477;51.038;4.588;2023-04-08T01:33:23;6.47;;;3.15;;
26908;SDS011;14477;51.038;4.588;2023-04-08T01:35:51;5.70;;;2.93;;
26908;SDS011;14477;51.038;4.588;2023-04-08T01:38:19;5.75;;;3.00;;
26908;SDS011;14477;51.038;4.588;2023-04-08T01:40:47;6.97;;;3.20;;
26908;SDS011;14477;51.038;4.588;2023-04-08T01:43:13;6.43;;;3.33;;
26908;SDS011;14477;51.038;4.588;2023-04-08T01:45:42;6.78;;;2.97;;
26908;SDS011;14477;51.038;4.588;2023-04-08T01:48:09;5.63;;;3.30;;
26908;SDS011;14477;51.038;4.588;2023-04-08T01:50:38;6.90;;;3.40;;
26908;SDS011;14477;51.038;4.588;2023-04-08T01:53:08;6.68;;;3.25;;
26908;SDS011;14477;51.038;4.588;2023-04-08T01:55:35;7.53;;;3.40;;
26908;SDS011;14477;51.038;4.588;2023-04-08T01:58:02;9.80;;;3.90;;
26908;SDS011;14477;51.038;4.588;2023-04-08T02:00:31;6.43;;;3.53;;
26908;SDS011;14477;51.038;4.588;2023-04-08T02:02:58;8.38;;;3.30;;
26908;SDS011;14477;51.038;4.588;2023-04-08T02:05:26;7.70;;;3.83;;
26908;SDS011;14477;51.038;4.588;2023-04-08T02:07:52;6.93;;;3.60;;
26908;SDS011;14477;51.038;4.588;2023-04-08T02:10:18;8.32;;;3.50;;
26908;SDS011;14477;51.038;4.588;2023-04-08T02:12:43;7.97;;;3.30;;
26908;SDS011;14477;51.038;4.588;2023-04-08T02:15:11;6.65;;;3.30;;
26908;SDS011;14477;51.038;4.588;2023-04-08T02:20:26;6.05;;;3.42;;
26908;SDS011;14477;51.038;4.588;2023-04-08T02:23:02;8.15;;;3.58;;
26908;SDS011;14477;51.038;4.588;2023-04-08T02:25:33;6.03;;;3.23;;
26908;SDS011;14477;51.038;4.588;2023-04-08T02:28:02;9.38;;;3.80;;
26908;SDS011;14477;51.038;4.588;2023-04-08T02:30:30;7.35;;;3.08;;
26908;SDS011;14477;51.038;4.588;2023-04-08T02:32:57;6.45;;;3.38;;
26908;SDS011;14477;51.038;4.588;2023-04-08T02:35:25;6.88;;;3.33;;
26908;SDS011;14477;51.038;4.588;2023-04-08T02:37:52;6.20;;;3.17;;
26908;SDS011;14477;51.038;4.588;2023-04-08T02:40:30;7.38;;;3.40;;
26908;SDS011;14477;51.038;4.588;2023-04-08T02:42:57;5.45;;;2.92;;
26908;SDS011;14477;51.038;4.588;2023-04-08T02:45:24;6.90;;;3.40;;
26908;SDS011;14477;51.038;4.588;2023-04-08T02:47:53;7.03;;;3.42;;
26908;SDS011;14477;51.038;4.588;2023-04-08T02:50:19;8.27;;;3.45;;
26908;SDS011;14477;51.038;4.588;2023-04-08T02:52:45;7.83;;;4.03;;
26908;SDS011;14477;51.038;4.588;2023-04-08T02:55:11;8.23;;;3.25;;
26908;SDS011;14477;51.038;4.588;2023-04-08T02:57:37;7.67;;;3.87;;
26908;SDS011;14477;51.038;4.588;2023-04-08T03:00:04;9.00;;;3.50;;
26908;SDS011;14477;51.038;4.588;2023-04-08T03:02:31;7.53;;;3.45;;
26908;SDS011;14477;51.038;4.588;2023-04-08T03:04:57;6.22;;;3.15;;
26908;SDS011;14477;51.038;4.588;2023-04-08T03:07:22;5.83;;;3.17;;
26908;SDS011;14477;51.038;4.588;2023-04-08T03:09:48;7.07;;;3.45;;
26908;SDS011;14477;51.038;4.588;2023-04-08T03:12:14;7.97;;;3.55;;
26908;SDS011;14477;51.038;4.588;2023-04-08T03:14:40;6.20;;;3.23;;
26908;SDS011;14477;51.038;4.588;2023-04-08T03:17:06;6.47;;;3.50;;
26908;SDS011;14477;51.038;4.588;2023-04-08T03:19:32;8.90;;;3.60;;
26908;SDS011;14477;51.038;4.588;2023-04-08T03:21:57;8.03;;;3.30;;
26908;SDS011;14477;51.038;4.588;2023-04-08T03:24:23;6.13;;;3.47;;
26908;SDS011;14477;51.038;4.588;2023-04-08T03:26:48;6.00;;;3.40;;
26908;SDS011;14477;51.038;4.588;2023-04-08T03:29:14;7.03;;;3.40;;
26908;SDS011;14477;51.038;4.588;2023-04-08T03:31:40;6.47;;;3.67;;
26908;SDS011;14477;51.038;4.588;2023-04-08T03:34:05;8.27;;;3.42;;
26908;SDS011;14477;51.038;4.588;2023-04-08T03:36:31;7.67;;;3.47;;
26908;SDS011;14477;51.038;4.588;2023-04-08T03:38:57;6.57;;;3.05;;
26908;SDS011;14477;51.038;4.588;2023-04-08T03:41:22;6.63;;;3.40;;
26908;SDS011;14477;51.038;4.588;2023-04-08T03:43:48;6.33;;;3.43;;
26908;SDS011;14477;51.038;4.588;2023-04-08T03:46:13;6.47;;;3.50;;
26908;SDS011;14477;51.038;4.588;2023-04-08T03:48:39;7.00;;;3.30;;
26908;SDS011;14477;51.038;4.588;2023-04-08T03:51:05;6.60;;;3.63;;
26908;SDS011;14477;51.038;4.588;2023-04-08T03:53:30;8.80;;;3.80;;
26908;SDS011;14477;51.038;4.588;2023-04-08T03:55:56;7.97;;;3.88;;
26908;SDS011;14477;51.038;4.588;2023-04-08T03:58:23;6.63;;;3.20;;
26908;SDS011;14477;51.038;4.588;2023-04-08T04:00:49;7.93;;;3.20;;
26908;SDS011;14477;51.038;4.588;2023-04-08T04:03:15;7.35;;;3.50;;
26908;SDS011;14477;51.038;4.588;2023-04-08T04:05:41;6.33;;;3.60;;
26908;SDS011;14477;51.038;4.588;2023-04-08T04:08:06;6.82;;;3.40;;
26908;SDS011;14477;51.038;4.588;2023-04-08T04:10:33;7.03;;;3.73;;
26908;SDS011;14477;51.038;4.588;2023-04-08T04:12:59;7.13;;;3.70;;
26908;SDS011;14477;51.038;4.588;2023-04-08T04:15:25;8.02;;;3.80;;
26908;SDS011;14477;51.038;4.588;2023-04-08T04:17:51;7.47;;;3.83;;
26908;SDS011;14477;51.038;4.588;2023-04-08T04:20:17;7.68;;;3.63;;
26908;SDS011;14477;51.038;4.588;2023-04-08T04:22:42;8.40;;;3.85;;
26908;SDS011;14477;51.038;4.588;2023-04-08T04:25:08;8.27;;;3.80;;
26908;SDS011;14477;51.038;4.588;2023-04-08T04:27:34;8.70;;;4.18;;
26908;SDS011;14477;51.038;4.588;2023-04-08T04:30:03;9.32;;;4.07;;
26908;SDS011;14477;51.038;4.588;2023-04-08T04:32:30;8.20;;;4.05;;
26908;SDS011;14477;51.038;4.588;2023-04-08T04:34:55;6.77;;;3.73;;
26908;SDS011;14477;51.038;4.588;2023-04-08T04:37:21;6.20;;;3.47;;
26908;SDS011;14477;51.038;4.588;2023-04-08T04:39:47;7.77;;;3.83;;
26908;SDS011;14477;51.038;4.588;2023-04-08T04:42:12;7.95;;;3.88;;
26908;SDS011;14477;51.038;4.588;2023-04-08T04:44:38;6.73;;;3.77;;
26908;SDS011;14477;51.038;4.588;2023-04-08T04:47:04;8.65;;;4.22;;
26908;SDS011;14477;51.038;4.588;2023-04-08T04:49:29;10.10;;;4.33;;
26908;SDS011;14477;51.038;4.588;2023-04-08T04:51:55;9.65;;;4.30;;
26908;SDS011;14477;51.038;4.588;2023-04-08T04:54:21;7.87;;;4.13;;
26908;SDS011;14477;51.038;4.588;2023-04-08T04:56:46;8.30;;;4.30;;
26908;SDS011;14477;51.038;4.588;2023-04-08T04:59:12;8.52;;;4.03;;
26908;SDS011;14477;51.038;4.588;2023-04-08T05:01:37;7.97;;;4.20;;
26908;SDS011;14477;51.038;4.588;2023-04-08T05:04:05;8.60;;;4.25;;
26908;SDS011;14477;51.038;4.588;2023-04-08T05:06:31;7.75;;;4.05;;
26908;SDS011;14477;51.038;4.588;2023-04-08T05:08:57;8.90;;;4.63;;
26908;SDS011;14477;51.038;4.588;2023-04-08T05:11:22;7.90;;;4.27;;
26908;SDS011;14477;51.038;4.588;2023-04-08T05:13:48;8.73;;;4.30;;
26908;SDS011;14477;51.038;4.588;2023-04-08T05:16:14;7.60;;;3.78;;
26908;SDS011;14477;51.038;4.588;2023-04-08T05:18:40;8.80;;;4.10;;
26908;SDS011;14477;51.038;4.588;2023-04-08T05:21:06;7.43;;;3.87;;
26908;SDS011;14477;51.038;4.588;2023-04-08T05:23:31;8.45;;;4.28;;
26908;SDS011;14477;51.038;4.588;2023-04-08T05:25:58;8.47;;;4.13;;
26908;SDS011;14477;51.038;4.588;2023-04-08T05:28:24;8.85;;;4.43;;
26908;SDS011;14477;51.038;4.588;2023-04-08T05:30:49;9.67;;;4.13;;
26908;SDS011;14477;51.038;4.588;2023-04-08T05:33:16;8.90;;;4.63;;
26908;SDS011;14477;51.038;4.588;2023-04-08T05:35:42;9.20;;;4.50;;
26908;SDS011;14477;51.038;4.588;2023-04-08T05:38:08;9.50;;;4.30;;
26908;SDS011;14477;51.038;4.588;2023-04-08T05:40:33;11.90;;;4.95;;
26908;SDS011;14477;51.038;4.588;2023-04-08T05:42:59;10.00;;;4.80;;
26908;SDS011;14477;51.038;4.588;2023-04-08T05:45:26;9.23;;;5.00;;
26908;SDS011;14477;51.038;4.588;2023-04-08T05:47:52;9.68;;;4.80;;
26908;SDS011;14477;51.038;4.588;2023-04-08T05:50:18;9.47;;;4.87;;
26908;SDS011;14477;51.038;4.588;2023-04-08T05:52:43;9.57;;;4.88;;
26908;SDS011;14477;51.038;4.588;2023-04-08T05:55:10;10.23;;;4.67;;
26908;SDS011;14477;51.038;4.588;2023-04-08T05:57:36;9.75;;;4.63;;
26908;SDS011;14477;51.038;4.588;2023-04-08T06:00:03;10.73;;;5.47;;
26908;SDS011;14477;51.038;4.588;2023-04-08T06:02:31;10.43;;;5.07;;
26908;SDS011;14477;51.038;4.588;2023-04-08T06:04:56;10.40;;;5.17;;
26908;SDS011;14477;51.038;4.588;2023-04-08T06:07:22;10.88;;;5.15;;
26908;SDS011;14477;51.038;4.588;2023-04-08T06:09:48;12.80;;;5.20;;
26908;SDS011;14477;51.038;4.588;2023-04-08T06:12:13;11.47;;;5.30;;
26908;SDS011;14477;51.038;4.588;2023-04-08T06:14:39;12.65;;;5.65;;
26908;SDS011;14477;51.038;4.588;2023-04-08T06:17:05;11.23;;;5.47;;
26908;SDS011;14477;51.038;4.588;2023-04-08T06:19:30;13.10;;;5.80;;
26908;SDS011;14477;51.038;4.588;2023-04-08T06:21:56;13.00;;;5.40;;
26908;SDS011;14477;51.038;4.588;2023-04-08T06:24:23;11.60;;;5.25;;
26908;SDS011;14477;51.038;4.588;2023-04-08T06:26:53;12.77;;;6.05;;
26908;SDS011;14477;51.038;4.588;2023-04-08T06:29:20;13.25;;;6.25;;
26908;SDS011;14477;51.038;4.588;2023-04-08T06:31:47;11.73;;;6.00;;
26908;SDS011;14477;51.038;4.588;2023-04-08T06:34:13;12.80;;;6.03;;
26908;SDS011;14477;51.038;4.588;2023-04-08T06:36:38;13.38;;;6.40;;
26908;SDS011;14477;51.038;4.588;2023-04-08T06:39:04;12.38;;;6.05;;
26908;SDS011;14477;51.038;4.588;2023-04-08T06:41:30;11.13;;;5.57;;
26908;SDS011;14477;51.038;4.588;2023-04-08T06:43:56;13.43;;;6.23;;
26908;SDS011;14477;51.038;4.588;2023-04-08T06:46:22;13.98;;;6.00;;
26908;SDS011;14477;51.038;4.588;2023-04-08T06:48:47;11.50;;;5.77;;
26908;SDS011;14477;51.038;4.588;2023-04-08T06:51:13;11.90;;;5.73;;
26908;SDS011;14477;51.038;4.588;2023-04-08T06:53:38;12.23;;;6.18;;
26908;SDS011;14477;51.038;4.588;2023-04-08T06:56:04;11.87;;;5.93;;
26908;SDS011;14477;51.038;4.588;2023-04-08T06:58:30;10.95;;;5.85;;
26908;SDS011;14477;51.038;4.588;2023-04-08T07:00:56;11.60;;;6.13;;
26908;SDS011;14477;51.038;4.588;2023-04-08T07:03:23;16.45;;;7.03;;
26908;SDS011;14477;51.038;4.588;2023-04-08T07:05:48;13.15;;;6.47;;
26908;SDS011;14477;51.038;4.588;2023-04-08T07:08:14;12.77;;;6.30;;
26908;SDS011;14477;51.038;4.588;2023-04-08T07:10:40;12.18;;;6.13;;
26908;SDS011;14477;51.038;4.588;2023-04-08T07:13:06;13.07;;;6.40;;
26908;SDS011;14477;51.038;4.588;2023-04-08T07:15:31;13.50;;;6.60;;
26908;SDS011;14477;51.038;4.588;2023-04-08T07:17:57;13.07;;;6.50;;
26908;SDS011;14477;51.038;4.588;2023-04-08T07:20:24;15.15;;;6.22;;
26908;SDS011;14477;51.038;4.588;2023-04-08T07:22:50;16.65;;;6.95;;
26908;SDS011;14477;51.038;4.588;2023-04-08T07:25:16;12.98;;;6.90;;
26908;SDS011;14477;51.038;4.588;2023-04-08T07:27:42;15.37;;;7.00;;
26908;SDS011;14477;51.038;4.588;2023-04-08T07:30:08;13.95;;;7.07;;
26908;SDS011;14477;51.038;4.588;2023-04-08T07:32:33;14.20;;;6.72;;
26908;SDS011;14477;51.038;4.588;2023-04-08T07:35:00;17.38;;;7.25;;
26908;SDS011;14477;51.038;4.588;2023-04-08T07:37:26;12.90;;;6.40;;
26908;SDS011;14477;51.038;4.588;2023-04-08T07:39:52;13.38;;;6.22;;
26908;SDS011;14477;51.038;4.588;2023-04-08T07:42:18;12.33;;;6.03;;
26908;SDS011;14477;51.038;4.588;2023-04-08T07:44:46;15.25;;;6.95;;
26908;SDS011;14477;51.038;4.588;2023-04-08T07:47:12;14.10;;;6.85;;
26908;SDS011;14477;51.038;4.588;2023-04-08T07:49:38;13.50;;;7.00;;
26908;SDS011;14477;51.038;4.588;2023-04-08T07:52:04;14.15;;;6.85;;
26908;SDS011;14477;51.038;4.588;2023-04-08T07:54:31;12.35;;;6.93;;
26908;SDS011;14477;51.038;4.588;2023-04-08T07:56:58;13.93;;;6.73;;
26908;SDS011;14477;51.038;4.588;2023-04-08T07:59:24;14.68;;;7.00;;
26908;SDS011;14477;51.038;4.588;2023-04-08T08:01:50;14.02;;;7.10;;
26908;SDS011;14477;51.038;4.588;2023-04-08T08:04:15;13.47;;;7.80;;
26908;SDS011;14477;51.038;4.588;2023-04-08T08:06:42;14.75;;;7.00;;
26908;SDS011;14477;51.038;4.588;2023-04-08T08:09:08;13.30;;;7.50;;
26908;SDS011;14477;51.038;4.588;2023-04-08T08:11:33;14.33;;;7.43;;
26908;SDS011;14477;51.038;4.588;2023-04-08T08:13:59;16.23;;;7.45;;
26908;SDS011;14477;51.038;4.588;2023-04-08T08:16:28;12.35;;;6.00;;
26908;SDS011;14477;51.038;4.588;2023-04-08T08:18:55;11.82;;;7.03;;
26908;SDS011;14477;51.038;4.588;2023-04-08T08:21:21;12.90;;;7.20;;
26908;SDS011;14477;51.038;4.588;2023-04-08T08:23:47;13.75;;;6.88;;
26908;SDS011;14477;51.038;4.588;2023-04-08T08:26:13;13.70;;;7.05;;
26908;SDS011;14477;51.038;4.588;2023-04-08T08:28:39;13.40;;;7.50;;
26908;SDS011;14477;51.038;4.588;2023-04-08T08:31:05;14.40;;;7.63;;
26908;SDS011;14477;51.038;4.588;2023-04-08T08:33:31;15.27;;;7.50;;
26908;SDS011;14477;51.038;4.588;2023-04-08T08:35:57;12.43;;;6.80;;
26908;SDS011;14477;51.038;4.588;2023-04-08T08:38:23;11.77;;;6.60;;
26908;SDS011;14477;51.038;4.588;2023-04-08T08:40:53;12.88;;;6.82;;
26908;SDS011;14477;51.038;4.588;2023-04-08T08:43:20;12.73;;;6.90;;
26908;SDS011;14477;51.038;4.588;2023-04-08T08:45:46;12.90;;;7.03;;
26908;SDS011;14477;51.038;4.588;2023-04-08T08:48:12;12.05;;;7.00;;
26908;SDS011;14477;51.038;4.588;2023-04-08T08:50:37;11.50;;;6.90;;
26908;SDS011;14477;51.038;4.588;2023-04-08T08:53:03;10.25;;;6.25;;
26908;SDS011;14477;51.038;4.588;2023-04-08T08:55:32;12.10;;;6.67;;
26908;SDS011;14477;51.038;4.588;2023-04-08T08:57:58;10.80;;;6.35;;
26908;SDS011;14477;51.038;4.588;2023-04-08T09:00:35;10.30;;;6.32;;
26908;SDS011;14477;51.038;4.588;2023-04-08T09:03:21;14.03;;;6.80;;
26908;SDS011;14477;51.038;4.588;2023-04-08T09:06:01;13.85;;;7.13;;
26908;SDS011;14477;51.038;4.588;2023-04-08T09:11:10;12.93;;;7.90;;
26908;SDS011;14477;51.038;4.588;2023-04-08T09:13:37;12.98;;;7.22;;
26908;SDS011;14477;51.038;4.588;2023-04-08T09:16:03;15.37;;;7.77;;
26908;SDS011;14477;51.038;4.588;2023-04-08T09:18:31;14.50;;;7.93;;
26908;SDS011;14477;51.038;4.588;2023-04-08T09:21:01;14.13;;;7.45;;
26908;SDS011;14477;51.038;4.588;2023-04-08T09:26:13;11.98;;;6.70;;
26908;SDS011;14477;51.038;4.588;2023-04-08T09:28:41;11.27;;;6.43;;
26908;SDS011;14477;51.038;4.588;2023-04-08T09:33:47;10.32;;;5.82;;
26908;SDS011;14477;51.038;4.588;2023-04-08T09:36:14;10.77;;;6.22;;
26908;SDS011;14477;51.038;4.588;2023-04-08T09:38:40;11.57;;;6.75;;
26908;SDS011;14477;51.038;4.588;2023-04-08T09:41:07;10.70;;;6.67;;
26908;SDS011;14477;51.038;4.588;2023-04-08T09:43:34;10.63;;;6.15;;
26908;SDS011;14477;51.038;4.588;2023-04-08T09:46:16;10.55;;;5.88;;
26908;SDS011;14477;51.038;4.588;2023-04-08T09:48:54;8.95;;;5.60;;
26908;SDS011;14477;51.038;4.588;2023-04-08T09:51:32;8.25;;;5.28;;
26908;SDS011;14477;51.038;4.588;2023-04-08T09:54:22;8.23;;;5.30;;
26908;SDS011;14477;51.038;4.588;2023-04-08T09:57:09;8.10;;;5.47;;
26908;SDS011;14477;51.038;4.588;2023-04-08T09:59:38;5.15;;;4.20;;
26908;SDS011;14477;51.038;4.588;2023-04-08T10:02:16;4.65;;;3.20;;
26908;SDS011;14477;51.038;4.588;2023-04-08T10:04:49;5.82;;;3.92;;
26908;SDS011;14477;51.038;4.588;2023-04-08T10:07:18;5.30;;;4.03;;
26908;SDS011;14477;51.038;4.588;2023-04-08T10:09:44;5.88;;;3.95;;
26908;SDS011;14477;51.038;4.588;2023-04-08T10:12:13;5.72;;;3.85;;
26908;SDS011;14477;51.038;4.588;2023-04-08T10:14:39;6.53;;;4.40;;
26908;SDS011;14477;51.038;4.588;2023-04-08T10:17:24;6.67;;;4.73;;
26908;SDS011;14477;51.038;4.588;2023-04-08T10:19:56;6.80;;;4.85;;
26908;SDS011;14477;51.038;4.588;2023-04-08T10:27:42;6.97;;;4.70;;
26908;SDS011;14477;51.038;4.588;2023-04-08T10:30:54;9.57;;;5.90;;
26908;SDS011;14477;51.038;4.588;2023-04-08T10:32:57;8.75;;;5.65;;
26908;SDS011;14477;51.038;4.588;2023-04-08T10:35:30;9.25;;;5.90;;
26908;SDS011;14477;51.038;4.588;2023-04-08T10:37:57;8.80;;;6.03;;
26908;SDS011;14477;51.038;4.588;2023-04-08T10:40:23;9.27;;;5.50;;
26908;SDS011;14477;51.038;4.588;2023-04-08T10:45:22;9.70;;;6.00;;
26908;SDS011;14477;51.038;4.588;2023-04-08T10:47:48;9.57;;;6.30;;
26908;SDS011;14477;51.038;4.588;2023-04-08T10:50:14;8.03;;;5.50;;
26908;SDS011;14477;51.038;4.588;2023-04-08T10:55:23;7.88;;;5.60;;
26908;SDS011;14477;51.038;4.588;2023-04-08T10:57:50;8.82;;;6.20;;
26908;SDS011;14477;51.038;4.588;2023-04-08T11:00:17;9.82;;;6.88;;
26908;SDS011;14477;51.038;4.588;2023-04-08T11:02:44;9.53;;;6.73;;
26908;SDS011;14477;51.038;4.588;2023-04-08T11:05:10;9.93;;;6.90;;
26908;SDS011;14477;51.038;4.588;2023-04-08T11:07:42;9.60;;;6.50;;
26908;SDS011;14477;51.038;4.588;2023-04-08T11:10:08;9.93;;;6.18;;
26908;SDS011;14477;51.038;4.588;2023-04-08T11:12:34;8.47;;;6.10;;
26908;SDS011;14477;51.038;4.588;2023-04-08T11:15:02;8.80;;;6.25;;
26908;SDS011;14477;51.038;4.588;2023-04-08T11:17:29;10.50;;;5.95;;
26908;SDS011;14477;51.038;4.588;2023-04-08T11:19:56;9.23;;;5.88;;
26908;SDS011;14477;51.038;4.588;2023-04-08T11:22:26;9.68;;;6.47;;
26908;SDS011;14477;51.038;4.588;2023-04-08T11:24:53;8.77;;;6.27;;
26908;SDS011;14477;51.038;4.588;2023-04-08T11:27:20;8.55;;;5.60;;
26908;SDS011;14477;51.038;4.588;2023-04-08T11:29:49;9.50;;;5.47;;
26908;SDS011;14477;51.038;4.588;2023-04-08T11:32:15;8.52;;;5.65;;
26908;SDS011;14477;51.038;4.588;2023-04-08T11:34:41;8.60;;;5.80;;
26908;SDS011;14477;51.038;4.588;2023-04-08T11:37:07;8.20;;;5.55;;
26908;SDS011;14477;51.038;4.588;2023-04-08T11:39:33;7.90;;;6.00;;
26908;SDS011;14477;51.038;4.588;2023-04-08T11:41:58;8.00;;;5.68;;
26908;SDS011;14477;51.038;4.588;2023-04-08T11:44:30;9.37;;;6.73;;
26908;SDS011;14477;51.038;4.588;2023-04-08T11:47:00;8.93;;;6.13;;
26908;SDS011;14477;51.038;4.588;2023-04-08T11:49:42;9.32;;;6.72;;
26908;SDS011;14477;51.038;4.588;2023-04-08T11:52:08;10.25;;;6.63;;
26908;SDS011;14477;51.038;4.588;2023-04-08T11:54:39;10.33;;;6.57;;
26908;SDS011;14477;51.038;4.588;2023-04-08T11:57:06;10.07;;;6.13;;
26908;SDS011;14477;51.038;4.588;2023-04-08T11:59:34;10.55;;;6.80;;
26908;SDS011;14477;51.038;4.588;2023-04-08T12:02:00;11.32;;;6.95;;
26908;SDS011;14477;51.038;4.588;2023-04-08T12:04:27;10.97;;;6.87;;
26908;SDS011;14477;51.038;4.588;2023-04-08T12:06:53;11.35;;;7.03;;
26908;SDS011;14477;51.038;4.588;2023-04-08T12:09:19;9.05;;;6.22;;
26908;SDS011;14477;51.038;4.588;2023-04-08T12:11:45;9.90;;;6.43;;
26908;SDS011;14477;51.038;4.588;2023-04-08T12:14:11;12.85;;;8.23;;
26908;SDS011;14477;51.038;4.588;2023-04-08T12:16:36;12.40;;;7.70;;
26908;SDS011;14477;51.038;4.588;2023-04-08T12:19:02;11.40;;;7.55;;
26908;SDS011;14477;51.038;4.588;2023-04-08T12:21:28;12.43;;;8.10;;
26908;SDS011;14477;51.038;4.588;2023-04-08T12:23:53;10.93;;;7.50;;
26908;SDS011;14477;51.038;4.588;2023-04-08T12:26:19;12.30;;;8.40;;
26908;SDS011;14477;51.038;4.588;2023-04-08T12:28:45;10.67;;;7.70;;
26908;SDS011;14477;51.038;4.588;2023-04-08T12:31:11;9.80;;;7.27;;
26908;SDS011;14477;51.038;4.588;2023-04-08T12:33:36;9.25;;;6.50;;
26908;SDS011;14477;51.038;4.588;2023-04-08T12:36:02;9.27;;;6.77;;
26908;SDS011;14477;51.038;4.588;2023-04-08T12:38:28;11.30;;;7.70;;
26908;SDS011;14477;51.038;4.588;2023-04-08T12:40:54;10.77;;;7.30;;
26908;SDS011;14477;51.038;4.588;2023-04-08T12:43:20;10.40;;;7.32;;
26908;SDS011;14477;51.038;4.588;2023-04-08T12:45:46;10.55;;;7.20;;
26908;SDS011;14477;51.038;4.588;2023-04-08T12:48:12;10.38;;;7.60;;
26908;SDS011;14477;51.038;4.588;2023-04-08T12:50:38;11.13;;;7.77;;
26908;SDS011;14477;51.038;4.588;2023-04-08T12:53:04;10.85;;;7.85;;
26908;SDS011;14477;51.038;4.588;2023-04-08T12:55:30;9.73;;;7.55;;
26908;SDS011;14477;51.038;4.588;2023-04-08T12:57:56;9.63;;;7.03;;
26908;SDS011;14477;51.038;4.588;2023-04-08T13:00:22;11.20;;;8.23;;
26908;SDS011;14477;51.038;4.588;2023-04-08T13:02:48;9.97;;;7.90;;
26908;SDS011;14477;51.038;4.588;2023-04-08T13:05:13;9.48;;;7.38;;
26908;SDS011;14477;51.038;4.588;2023-04-08T13:07:39;9.80;;;7.17;;
26908;SDS011;14477;51.038;4.588;2023-04-08T13:10:05;8.98;;;6.75;;
26908;SDS011;14477;51.038;4.588;2023-04-08T13:12:32;10.88;;;7.55;;
26908;SDS011;14477;51.038;4.588;2023-04-08T13:14:57;10.20;;;7.37;;
26908;SDS011;14477;51.038;4.588;2023-04-08T13:17:24;10.98;;;7.53;;
26908;SDS011;14477;51.038;4.588;2023-04-08T13:19:50;10.70;;;7.30;;
26908;SDS011;14477;51.038;4.588;2023-04-08T13:22:16;11.25;;;7.75;;
26908;SDS011;14477;51.038;4.588;2023-04-08T13:24:42;10.10;;;7.03;;
26908;SDS011;14477;51.038;4.588;2023-04-08T13:27:07;10.55;;;7.63;;
26908;SDS011;14477;51.038;4.588;2023-04-08T13:29:33;9.90;;;7.30;;
26908;SDS011;14477;51.038;4.588;2023-04-08T13:31:59;9.82;;;7.15;;
26908;SDS011;14477;51.038;4.588;2023-04-08T13:34:25;9.60;;;7.17;;
26908;SDS011;14477;51.038;4.588;2023-04-08T13:36:51;8.73;;;6.40;;
26908;SDS011;14477;51.038;4.588;2023-04-08T13:39:17;8.73;;;6.35;;
26908;SDS011;14477;51.038;4.588;2023-04-08T13:41:43;9.17;;;6.80;;
26908;SDS011;14477;51.038;4.588;2023-04-08T13:44:08;8.50;;;6.13;;
26908;SDS011;14477;51.038;4.588;2023-04-08T13:46:34;8.97;;;6.13;;
26908;SDS011;14477;51.038;4.588;2023-04-08T13:49:00;8.25;;;6.35;;
26908;SDS011;14477;51.038;4.588;2023-04-08T13:51:27;8.27;;;5.97;;
26908;SDS011;14477;51.038;4.588;2023-04-08T13:53:53;8.90;;;6.23;;
26908;SDS011;14477;51.038;4.588;2023-04-08T13:56:18;8.90;;;6.32;;
26908;SDS011;14477;51.038;4.588;2023-04-08T13:58:45;8.77;;;6.65;;
26908;SDS011;14477;51.038;4.588;2023-04-08T14:01:11;8.13;;;6.17;;
26908;SDS011;14477;51.038;4.588;2023-04-08T14:03:36;7.25;;;5.60;;
26908;SDS011;14477;51.038;4.588;2023-04-08T14:06:02;7.07;;;5.47;;
26908;SDS011;14477;51.038;4.588;2023-04-08T14:08:28;7.27;;;5.70;;
26908;SDS011;14477;51.038;4.588;2023-04-08T14:10:54;7.00;;;5.32;;
26908;SDS011;14477;51.038;4.588;2023-04-08T14:13:20;8.07;;;5.22;;
26908;SDS011;14477;51.038;4.588;2023-04-08T14:15:45;7.10;;;5.30;;
26908;SDS011;14477;51.038;4.588;2023-04-08T14:18:12;7.70;;;6.07;;
26908;SDS011;14477;51.038;4.588;2023-04-08T14:20:38;7.65;;;5.65;;
26908;SDS011;14477;51.038;4.588;2023-04-08T14:23:03;7.90;;;5.50;;
26908;SDS011;14477;51.038;4.588;2023-04-08T14:25:29;8.05;;;6.32;;
26908;SDS011;14477;51.038;4.588;2023-04-08T14:27:55;8.00;;;6.30;;
26908;SDS011;14477;51.038;4.588;2023-04-08T14:30:21;8.10;;;5.88;;
26908;SDS011;14477;51.038;4.588;2023-04-08T14:32:46;8.27;;;6.17;;
26908;SDS011;14477;51.038;4.588;2023-04-08T14:35:12;8.40;;;6.18;;
26908;SDS011;14477;51.038;4.588;2023-04-08T14:37:38;8.03;;;6.07;;
26908;SDS011;14477;51.038;4.588;2023-04-08T14:40:04;9.02;;;6.07;;
26908;SDS011;14477;51.038;4.588;2023-04-08T14:42:30;6.68;;;5.63;;
26908;SDS011;14477;51.038;4.588;2023-04-08T14:44:56;7.20;;;5.63;;
26908;SDS011;14477;51.038;4.588;2023-04-08T14:47:22;6.97;;;5.35;;
26908;SDS011;14477;51.038;4.588;2023-04-08T14:49:48;8.45;;;6.10;;
26908;SDS011;14477;51.038;4.588;2023-04-08T14:52:13;7.37;;;5.77;;
26908;SDS011;14477;51.038;4.588;2023-04-08T14:54:39;7.37;;;5.60;;
26908;SDS011;14477;51.038;4.588;2023-04-08T14:57:05;6.82;;;5.38;;
26908;SDS011;14477;51.038;4.588;2023-04-08T14:59:31;6.45;;;4.90;;
26908;SDS011;14477;51.038;4.588;2023-04-08T15:01:57;6.77;;;5.13;;
26908;SDS011;14477;51.038;4.588;2023-04-08T15:04:23;6.85;;;5.55;;
26908;SDS011;14477;51.038;4.588;2023-04-08T15:06:48;6.87;;;5.07;;
26908;SDS011;14477;51.038;4.588;2023-04-08T15:09:14;6.97;;;5.38;;
26908;SDS011;14477;51.038;4.588;2023-04-08T15:11:40;6.90;;;5.15;;